Terminal Aerodrome Forecast
Issued by NWS

Home | Current Version | Previous Version | Text Only | Print | Product List | Glossary On
Versions: 1 2 3 4 5 6 7 8 9 10 11 12 13 14
000
FTUS45 KSLC 052334
TAF36U
TAF
K36U 052334Z 0600/0624 15012G18KT P6SM SCT100 BKN150
     FM060100 VRB04KT P6SM BKN100 BKN140
     FM061700 30009KT P6SM BKN100 BKN150=

USA.gov is the U.S. government's official web portal to all federal, state and local government web resources and services.